sensor_id;sensor_type;location;lat;lon;timestamp;pressure;altitude;pressure_sealevel;temperature;humidity
73821;BME280;62150;43.582;1.456;2024-02-23T04:39:05;98944.22;;;8.37;100.00
73821;BME280;62150;43.582;1.456;2024-02-23T04:41:33;98940.84;;;8.54;100.00
73821;BME280;62150;43.582;1.456;2024-02-23T04:44:01;98940.91;;;8.35;100.00
73821;BME280;62150;43.582;1.456;2024-02-23T04:46:28;98938.28;;;9.20;100.00
73821;BME280;62150;43.582;1.456;2024-02-23T04:48:56;98945.75;;;9.40;100.00
73821;BME280;62150;43.582;1.456;2024-02-23T04:51:23;98944.94;;;9.56;100.00
73821;BME280;62150;43.582;1.456;2024-02-23T04:53:51;98949.78;;;9.76;100.00
73821;BME280;62150;43.582;1.456;2024-02-23T04:56:20;98938.97;;;9.55;100.00
73821;BME280;62150;43.582;1.456;2024-02-23T04:58:48;98928.94;;;9.82;100.00
73821;BME280;62150;43.582;1.456;2024-02-23T05:01:16;98924.47;;;10.01;100.00
73821;BME280;62150;43.582;1.456;2024-02-23T05:03:43;98917.94;;;9.80;100.00
73821;BME280;62150;43.582;1.456;2024-02-23T05:06:11;98923.72;;;9.05;100.00
73821;BME280;62150;43.582;1.456;2024-02-23T05:08:39;98922.34;;;9.15;100.00
73821;BME280;62150;43.582;1.456;2024-02-23T05:11:07;98922.00;;;9.37;100.00
73821;BME280;62150;43.582;1.456;2024-02-23T05:13:36;98919.13;;;8.79;100.00
73821;BME280;62150;43.582;1.456;2024-02-23T05:16:05;98923.50;;;9.25;100.00
73821;BME280;62150;43.582;1.456;2024-02-23T05:18:33;98915.13;;;9.06;100.00
73821;BME280;62150;43.582;1.456;2024-02-23T05:21:01;98920.53;;;9.49;100.00
73821;BME280;62150;43.582;1.456;2024-02-23T05:23:28;98921.09;;;9.85;100.00
73821;BME280;62150;43.582;1.456;2024-02-23T05:25:56;98920.63;;;10.08;100.00
73821;BME280;62150;43.582;1.456;2024-02-23T05:28:24;98922.44;;;10.22;100.00
73821;BME280;62150;43.582;1.456;2024-02-23T05:30:53;98899.09;;;10.27;100.00
73821;BME280;62150;43.582;1.456;2024-02-23T05:33:22;98912.31;;;10.35;100.00
73821;BME280;62150;43.582;1.456;2024-02-23T05:35:50;98902.38;;;10.13;100.00
73821;BME280;62150;43.582;1.456;2024-02-23T05:38:18;98911.75;;;10.30;100.00
73821;BME280;62150;43.582;1.456;2024-02-23T05:40:46;98910.91;;;10.29;100.00
73821;BME280;62150;43.582;1.456;2024-02-23T05:43:14;98925.81;;;9.46;100.00
73821;BME280;62150;43.582;1.456;2024-02-23T05:45:45;98925.06;;;9.91;100.00
73821;BME280;62150;43.582;1.456;2024-02-23T05:48:14;98929.63;;;9.23;100.00
73821;BME280;62150;43.582;1.456;2024-02-23T05:50:41;98933.41;;;8.83;100.00
73821;BME280;62150;43.582;1.456;2024-02-23T05:53:09;98935.22;;;9.77;100.00
73821;BME280;62150;43.582;1.456;2024-02-23T05:55:36;98928.69;;;10.02;100.00
73821;BME280;62150;43.582;1.456;2024-02-23T05:58:04;98933.72;;;10.20;100.00
73821;BME280;62150;43.582;1.456;2024-02-23T06:00:31;98928.88;;;10.14;100.00
73821;BME280;62150;43.582;1.456;2024-02-23T06:02:59;98928.06;;;10.29;100.00
73821;BME280;62150;43.582;1.456;2024-02-23T06:05:28;98930.06;;;10.24;100.00
73821;BME280;62150;43.582;1.456;2024-02-23T06:07:55;98935.09;;;10.09;100.00
73821;BME280;62150;43.582;1.456;2024-02-23T06:10:23;98929.88;;;10.27;100.00
73821;BME280;62150;43.582;1.456;2024-02-23T06:12:51;98931.50;;;9.82;100.00
73821;BME280;62150;43.582;1.456;2024-02-23T06:15:18;98939.78;;;10.03;100.00
73821;BME280;62150;43.582;1.456;2024-02-23T06:17:46;98945.03;;;10.16;100.00
73821;BME280;62150;43.582;1.456;2024-02-23T06:20:12;98934.09;;;10.28;100.00
73821;BME280;62150;43.582;1.456;2024-02-23T06:22:41;98939.88;;;9.86;100.00
73821;BME280;62150;43.582;1.456;2024-02-23T06:25:09;98935.66;;;10.15;100.00
73821;BME280;62150;43.582;1.456;2024-02-23T06:27:38;98932.84;;;10.35;100.00
73821;BME280;62150;43.582;1.456;2024-02-23T06:30:08;98929.53;;;10.33;100.00
73821;BME280;62150;43.582;1.456;2024-02-23T06:32:37;98932.09;;;10.17;100.00
73821;BME280;62150;43.582;1.456;2024-02-23T06:35:05;98919.19;;;10.34;100.00
73821;BME280;62150;43.582;1.456;2024-02-23T06:37:33;98938.03;;;10.03;100.00
73821;BME280;62150;43.582;1.456;2024-02-23T06:40:02;98948.81;;;9.79;100.00
73821;BME280;62150;43.582;1.456;2024-02-23T06:42:30;98939.16;;;10.14;100.00
73821;BME280;62150;43.582;1.456;2024-02-23T06:44:58;98934.63;;;10.03;100.00
73821;BME280;62150;43.582;1.456;2024-02-23T06:47:25;98934.31;;;9.93;100.00
73821;BME280;62150;43.582;1.456;2024-02-23T06:49:53;98937.69;;;8.99;100.00
73821;BME280;62150;43.582;1.456;2024-02-23T06:52:20;98937.47;;;9.20;100.00
73821;BME280;62150;43.582;1.456;2024-02-23T06:54:49;98943.41;;;9.20;100.00
73821;BME280;62150;43.582;1.456;2024-02-23T06:57:18;98944.75;;;9.43;100.00
73821;BME280;62150;43.582;1.456;2024-02-23T06:59:45;98938.06;;;8.92;100.00
73821;BME280;62150;43.582;1.456;2024-02-23T07:02:13;98943.66;;;9.16;100.00
73821;BME280;62150;43.582;1.456;2024-02-23T07:04:40;98951.41;;;9.14;100.00
73821;BME280;62150;43.582;1.456;2024-02-23T07:07:08;98958.81;;;8.70;100.00
73821;BME280;62150;43.582;1.456;2024-02-23T07:09:37;98961.59;;;8.83;100.00
73821;BME280;62150;43.582;1.456;2024-02-23T07:12:06;98960.28;;;8.58;100.00
73821;BME280;62150;43.582;1.456;2024-02-23T07:14:35;98952.88;;;9.35;100.00
73821;BME280;62150;43.582;1.456;2024-02-23T07:17:02;98968.31;;;8.51;100.00
73821;BME280;62150;43.582;1.456;2024-02-23T07:19:30;98967.00;;;8.94;100.00
73821;BME280;62150;43.582;1.456;2024-02-23T07:21:57;98960.47;;;8.71;100.00
73821;BME280;62150;43.582;1.456;2024-02-23T07:24:25;98956.63;;;8.80;100.00
73821;BME280;62150;43.582;1.456;2024-02-23T07:26:54;98961.88;;;8.94;100.00
73821;BME280;62150;43.582;1.456;2024-02-23T07:29:21;98964.25;;;8.64;100.00
73821;BME280;62150;43.582;1.456;2024-02-23T07:31:50;98957.69;;;8.24;100.00
73821;BME280;62150;43.582;1.456;2024-02-23T07:34:17;98960.16;;;8.77;100.00
73821;BME280;62150;43.582;1.456;2024-02-23T07:36:45;98962.34;;;8.67;100.00
73821;BME280;62150;43.582;1.456;2024-02-23T07:39:12;98953.59;;;9.22;100.00
73821;BME280;62150;43.582;1.456;2024-02-23T07:41:40;98955.06;;;9.10;100.00
73821;BME280;62150;43.582;1.456;2024-02-23T07:44:08;98953.84;;;8.84;100.00
73821;BME280;62150;43.582;1.456;2024-02-23T07:46:35;98960.13;;;8.44;100.00
73821;BME280;62150;43.582;1.456;2024-02-23T07:49:06;98958.03;;;9.18;100.00
73821;BME280;62150;43.582;1.456;2024-02-23T07:51:37;98958.03;;;9.18;100.00
73821;BME280;62150;43.582;1.456;2024-02-23T07:54:05;98959.72;;;9.02;100.00
73821;BME280;62150;43.582;1.456;2024-02-23T07:56:35;98959.56;;;8.72;100.00
73821;BME280;62150;43.582;1.456;2024-02-23T07:59:03;98954.09;;;8.62;100.00
73821;BME280;62150;43.582;1.456;2024-02-23T08:01:31;98951.63;;;8.61;100.00
73821;BME280;62150;43.582;1.456;2024-02-23T08:03:58;98941.09;;;8.83;100.00
73821;BME280;62150;43.582;1.456;2024-02-23T08:06:27;98934.13;;;8.69;100.00
73821;BME280;62150;43.582;1.456;2024-02-23T08:08:55;98924.97;;;8.98;100.00
73821;BME280;62150;43.582;1.456;2024-02-23T08:11:23;98925.94;;;8.95;100.00
73821;BME280;62150;43.582;1.456;2024-02-23T08:13:56;98929.34;;;8.96;100.00
73821;BME280;62150;43.582;1.456;2024-02-23T08:16:25;98935.38;;;9.11;100.00
73821;BME280;62150;43.582;1.456;2024-02-23T08:18:53;98929.34;;;8.96;100.00
73821;BME280;62150;43.582;1.456;2024-02-23T08:21:20;98941.97;;;8.66;100.00
73821;BME280;62150;43.582;1.456;2024-02-23T08:23:57;98939.16;;;8.70;100.00
73821;BME280;62150;43.582;1.456;2024-02-23T08:26:25;98944.78;;;8.94;100.00
73821;BME280;62150;43.582;1.456;2024-02-23T08:28:53;98941.66;;;9.05;100.00
73821;BME280;62150;43.582;1.456;2024-02-23T08:31:21;98955.25;;;8.90;100.00
73821;BME280;62150;43.582;1.456;2024-02-23T08:33:48;98956.00;;;8.92;100.00
73821;BME280;62150;43.582;1.456;2024-02-23T08:36:16;98950.75;;;8.78;100.00
73821;BME280;62150;43.582;1.456;2024-02-23T08:38:43;98949.31;;;9.05;100.00
73821;BME280;62150;43.582;1.456;2024-02-23T08:41:12;98951.22;;;9.01;100.00
73821;BME280;62150;43.582;1.456;2024-02-23T08:43:41;98953.06;;;9.15;100.00
73821;BME280;62150;43.582;1.456;2024-02-23T08:46:09;98955.94;;;9.09;100.00
73821;BME280;62150;43.582;1.456;2024-02-23T08:48:39;98962.09;;;9.22;100.00
73821;BME280;62150;43.582;1.456;2024-02-23T08:51:06;98968.25;;;9.02;100.00
73821;BME280;62150;43.582;1.456;2024-02-23T08:53:34;98969.19;;;9.17;100.00
73821;BME280;62150;43.582;1.456;2024-02-23T08:56:02;98964.97;;;9.16;100.00
73821;BME280;62150;43.582;1.456;2024-02-23T08:58:31;98957.41;;;9.46;100.00
73821;BME280;62150;43.582;1.456;2024-02-23T09:00:58;98965.28;;;9.10;100.00
73821;BME280;62150;43.582;1.456;2024-02-23T09:03:26;98971.66;;;9.52;100.00
73821;BME280;62150;43.582;1.456;2024-02-23T09:05:53;98974.59;;;9.44;100.00
73821;BME280;62150;43.582;1.456;2024-02-23T09:08:21;98964.22;;;8.98;100.00
73821;BME280;62150;43.582;1.456;2024-02-23T09:10:48;98976.41;;;9.26;100.00
73821;BME280;62150;43.582;1.456;2024-02-23T09:13:16;98970.72;;;9.53;100.00
73821;BME280;62150;43.582;1.456;2024-02-23T09:15:45;98965.72;;;9.67;100.00
73821;BME280;62150;43.582;1.456;2024-02-23T09:18:12;98966.50;;;9.52;100.00
73821;BME280;62150;43.582;1.456;2024-02-23T09:20:41;98970.63;;;9.38;100.00
73821;BME280;62150;43.582;1.456;2024-02-23T09:23:09;98971.06;;;9.47;100.00
73821;BME280;62150;43.582;1.456;2024-02-23T09:25:38;98967.84;;;9.90;100.00
73821;BME280;62150;43.582;1.456;2024-02-23T09:28:06;98969.03;;;9.69;100.00
73821;BME280;62150;43.582;1.456;2024-02-23T09:30:34;98958.56;;;9.72;100.00
73821;BME280;62150;43.582;1.456;2024-02-23T09:33:03;98964.19;;;9.79;100.00
73821;BME280;62150;43.582;1.456;2024-02-23T09:35:30;98973.72;;;9.77;100.00
73821;BME280;62150;43.582;1.456;2024-02-23T09:37:58;98967.09;;;10.04;100.00
73821;BME280;62150;43.582;1.456;2024-02-23T09:40:25;98981.41;;;9.92;100.00
73821;BME280;62150;43.582;1.456;2024-02-23T09:42:58;98981.00;;;9.68;100.00
73821;BME280;62150;43.582;1.456;2024-02-23T09:45:26;98988.78;;;9.67;100.00
73821;BME280;62150;43.582;1.456;2024-02-23T09:47:54;98975.38;;;9.62;100.00
73821;BME280;62150;43.582;1.456;2024-02-23T09:50:25;98982.66;;;9.85;100.00
73821;BME280;62150;43.582;1.456;2024-02-23T09:52:52;98980.91;;;10.01;100.00
73821;BME280;62150;43.582;1.456;2024-02-23T09:55:22;98989.44;;;10.02;100.00
73821;BME280;62150;43.582;1.456;2024-02-23T09:57:52;98984.53;;;9.82;100.00
73821;BME280;62150;43.582;1.456;2024-02-23T10:00:23;98992.97;;;10.15;100.00
73821;BME280;62150;43.582;1.456;2024-02-23T10:02:51;98990.00;;;9.91;100.00
73821;BME280;62150;43.582;1.456;2024-02-23T10:05:29;99000.59;;;9.85;100.00
73821;BME280;62150;43.582;1.456;2024-02-23T10:07:57;98993.38;;;10.07;100.00
73821;BME280;62150;43.582;1.456;2024-02-23T10:10:30;99015.09;;;9.86;100.00
73821;BME280;62150;43.582;1.456;2024-02-23T10:12:58;99010.22;;;9.97;100.00
73821;BME280;62150;43.582;1.456;2024-02-23T10:15:26;99012.16;;;10.08;100.00
73821;BME280;62150;43.582;1.456;2024-02-23T10:17:56;99000.53;;;10.02;100.00
73821;BME280;62150;43.582;1.456;2024-02-23T10:20:25;99004.50;;;10.24;100.00
73821;BME280;62150;43.582;1.456;2024-02-23T10:22:52;99009.44;;;9.80;100.00
73821;BME280;62150;43.582;1.456;2024-02-23T10:25:20;99008.63;;;9.79;100.00
73821;BME280;62150;43.582;1.456;2024-02-23T10:27:48;99005.56;;;10.35;100.00
73821;BME280;62150;43.582;1.456;2024-02-23T10:30:16;99000.94;;;10.26;100.00
73821;BME280;62150;43.582;1.456;2024-02-23T10:32:43;99014.75;;;9.92;100.00
73821;BME280;62150;43.582;1.456;2024-02-23T10:35:15;99010.03;;;9.69;100.00
73821;BME280;62150;43.582;1.456;2024-02-23T10:37:46;99014.03;;;9.41;100.00
73821;BME280;62150;43.582;1.456;2024-02-23T10:40:17;99023.22;;;9.30;100.00
73821;BME280;62150;43.582;1.456;2024-02-23T10:42:46;99022.75;;;9.55;100.00
73821;BME280;62150;43.582;1.456;2024-02-23T10:45:18;99016.28;;;9.32;100.00
73821;BME280;62150;43.582;1.456;2024-02-23T10:47:48;99018.50;;;9.05;100.00
73821;BME280;62150;43.582;1.456;2024-02-23T10:50:16;99022.25;;;9.15;100.00
73821;BME280;62150;43.582;1.456;2024-02-23T10:52:47;99015.81;;;9.57;100.00
73821;BME280;62150;43.582;1.456;2024-02-23T10:55:15;99017.13;;;9.48;100.00
73821;BME280;62150;43.582;1.456;2024-02-23T10:57:43;99012.84;;;9.64;100.00
73821;BME280;62150;43.582;1.456;2024-02-23T11:00:12;99013.91;;;9.76;100.00
73821;BME280;62150;43.582;1.456;2024-02-23T11:02:45;99016.31;;;9.63;100.00
73821;BME280;62150;43.582;1.456;2024-02-23T11:05:14;99009.47;;;9.95;100.00
73821;BME280;62150;43.582;1.456;2024-02-23T11:07:43;99020.19;;;9.70;100.00
73821;BME280;62150;43.582;1.456;2024-02-23T11:10:17;99026.41;;;9.82;100.00
73821;BME280;62150;43.582;1.456;2024-02-23T11:12:58;99021.47;;;9.63;100.00
73821;BME280;62150;43.582;1.456;2024-02-23T11:15:30;99032.22;;;9.70;100.00
73821;BME280;62150;43.582;1.456;2024-02-23T11:18:01;99022.09;;;9.35;100.00
73821;BME280;62150;43.582;1.456;2024-02-23T11:20:35;99033.06;;;9.37;100.00
73821;BME280;62150;43.582;1.456;2024-02-23T11:23:13;99027.69;;;9.42;100.00
73821;BME280;62150;43.582;1.456;2024-02-23T11:25:58;99029.75;;;9.68;100.00
73821;BME280;62150;43.582;1.456;2024-02-23T11:28:25;99036.69;;;9.98;100.00
73821;BME280;62150;43.582;1.456;2024-02-23T11:30:54;99021.94;;;9.86;100.00
73821;BME280;62150;43.582;1.456;2024-02-23T11:33:28;99025.44;;;9.69;100.00
73821;BME280;62150;43.582;1.456;2024-02-23T11:36:05;99025.06;;;10.06;100.00
73821;BME280;62150;43.582;1.456;2024-02-23T11:38:34;99032.06;;;10.04;100.00
73821;BME280;62150;43.582;1.456;2024-02-23T11:41:03;99023.53;;;9.88;100.00
73821;BME280;62150;43.582;1.456;2024-02-23T11:43:31;99032.47;;;9.81;100.00
73821;BME280;62150;43.582;1.456;2024-02-23T11:46:01;99025.44;;;10.00;100.00
73821;BME280;62150;43.582;1.456;2024-02-23T11:48:29;99031.38;;;9.85;100.00
73821;BME280;62150;43.582;1.456;2024-02-23T11:50:57;99015.97;;;9.54;100.00
73821;BME280;62150;43.582;1.456;2024-02-23T11:53:24;99022.81;;;9.37;100.00
73821;BME280;62150;43.582;1.456;2024-02-23T11:55:54;99021.63;;;9.92;100.00
73821;BME280;62150;43.582;1.456;2024-02-23T11:58:22;99012.34;;;9.58;100.00
73821;BME280;62150;43.582;1.456;2024-02-23T12:00:51;99013.84;;;9.93;100.00
73821;BME280;62150;43.582;1.456;2024-02-23T12:03:19;99016.34;;;9.95;100.00
73821;BME280;62150;43.582;1.456;2024-02-23T12:05:49;98996.22;;;10.03;100.00
73821;BME280;62150;43.582;1.456;2024-02-23T12:08:17;99007.38;;;9.70;100.00
73821;BME280;62150;43.582;1.456;2024-02-23T12:10:45;99001.00;;;10.25;100.00
73821;BME280;62150;43.582;1.456;2024-02-23T12:13:13;99001.69;;;10.43;100.00
73821;BME280;62150;43.582;1.456;2024-02-23T12:15:42;98986.28;;;10.28;100.00
73821;BME280;62150;43.582;1.456;2024-02-23T12:18:11;98979.59;;;10.40;100.00
73821;BME280;62150;43.582;1.456;2024-02-23T12:20:39;98977.75;;;10.28;100.00
73821;BME280;62150;43.582;1.456;2024-02-23T12:23:06;98974.25;;;10.29;100.00
73821;BME280;62150;43.582;1.456;2024-02-23T12:25:36;98976.09;;;10.27;100.00
73821;BME280;62150;43.582;1.456;2024-02-23T12:28:04;98969.81;;;10.01;100.00
73821;BME280;62150;43.582;1.456;2024-02-23T12:30:32;98962.56;;;10.39;100.00
73821;BME280;62150;43.582;1.456;2024-02-23T12:33:06;98961.63;;;10.40;100.00
73821;BME280;62150;43.582;1.456;2024-02-23T12:35:34;98950.16;;;10.16;100.00
73821;BME280;62150;43.582;1.456;2024-02-23T12:38:02;98954.25;;;10.04;100.00
73821;BME280;62150;43.582;1.456;2024-02-23T12:40:31;98951.72;;;10.18;100.00
73821;BME280;62150;43.582;1.456;2024-02-23T12:42:59;98933.50;;;10.38;100.00
73821;BME280;62150;43.582;1.456;2024-02-23T12:45:27;98939.31;;;10.26;100.00
73821;BME280;62150;43.582;1.456;2024-02-23T12:47:54;98943.91;;;10.80;100.00
73821;BME280;62150;43.582;1.456;2024-02-23T12:50:26;98945.09;;;10.88;100.00
73821;BME280;62150;43.582;1.456;2024-02-23T12:52:57;98935.28;;;10.66;100.00
73821;BME280;62150;43.582;1.456;2024-02-23T12:55:25;98924.09;;;10.67;100.00
73821;BME280;62150;43.582;1.456;2024-02-23T12:57:53;98933.81;;;10.77;100.00
73821;BME280;62150;43.582;1.456;2024-02-23T13:00:20;98923.00;;;10.71;100.00
73821;BME280;62150;43.582;1.456;2024-02-23T13:02:48;98909.41;;;10.98;100.00
73821;BME280;62150;43.582;1.456;2024-02-23T13:05:16;98912.50;;;11.17;100.00
73821;BME280;62150;43.582;1.456;2024-02-23T13:07:46;98921.69;;;11.35;100.00
73821;BME280;62150;43.582;1.456;2024-02-23T13:10:14;98911.34;;;11.50;100.00
73821;BME280;62150;43.582;1.456;2024-02-23T13:12:44;98898.22;;;11.54;100.00
73821;BME280;62150;43.582;1.456;2024-02-23T13:15:12;98907.03;;;11.50;100.00
73821;BME280;62150;43.582;1.456;2024-02-23T13:17:40;98893.03;;;11.41;100.00
73821;BME280;62150;43.582;1.456;2024-02-23T13:20:08;98892.59;;;11.62;100.00
73821;BME280;62150;43.582;1.456;2024-02-23T13:22:38;98886.63;;;11.61;100.00
73821;BME280;62150;43.582;1.456;2024-02-23T13:25:08;98888.72;;;11.96;100.00
73821;BME280;62150;43.582;1.456;2024-02-23T13:27:35;98884.44;;;11.82;100.00
73821;BME280;62150;43.582;1.456;2024-02-23T13:30:03;98885.94;;;11.72;100.00
73821;BME280;62150;43.582;1.456;2024-02-23T13:32:31;98891.53;;;11.79;100.00
73821;BME280;62150;43.582;1.456;2024-02-23T13:34:58;98891.91;;;11.99;100.00
73821;BME280;62150;43.582;1.456;2024-02-23T13:37:30;98889.31;;;12.39;100.00
73821;BME280;62150;43.582;1.456;2024-02-23T13:39:57;98879.97;;;11.98;100.00
73821;BME280;62150;43.582;1.456;2024-02-23T13:42:26;98874.97;;;12.10;100.00
73821;BME280;62150;43.582;1.456;2024-02-23T13:44:55;98876.09;;;12.18;100.00
73821;BME280;62150;43.582;1.456;2024-02-23T13:47:22;98863.91;;;11.95;100.00
73821;BME280;62150;43.582;1.456;2024-02-23T13:49:50;98860.69;;;11.91;100.00
73821;BME280;62150;43.582;1.456;2024-02-23T13:52:17;98862.59;;;12.15;100.00
73821;BME280;62150;43.582;1.456;2024-02-23T13:54:45;98857.53;;;12.00;100.00
73821;BME280;62150;43.582;1.456;2024-02-23T13:57:12;98855.09;;;12.24;100.00
73821;BME280;62150;43.582;1.456;2024-02-23T13:59:41;98853.66;;;12.33;100.00
73821;BME280;62150;43.582;1.456;2024-02-23T14:02:09;98841.59;;;12.21;100.00
73821;BME280;62150;43.582;1.456;2024-02-23T14:04:37;98841.81;;;12.30;100.00
73821;BME280;62150;43.582;1.456;2024-02-23T14:07:05;98838.00;;;12.61;100.00
73821;BME280;62150;43.582;1.456;2024-02-23T14:09:32;98842.53;;;12.32;100.00
73821;BME280;62150;43.582;1.456;2024-02-23T14:12:00;98835.00;;;12.04;100.00
73821;BME280;62150;43.582;1.456;2024-02-23T14:14:29;98854.06;;;12.27;100.00
73821;BME280;62150;43.582;1.456;2024-02-23T14:16:58;98864.50;;;11.86;100.00
73821;BME280;62150;43.582;1.456;2024-02-23T14:19:26;98902.06;;;11.61;100.00
73821;BME280;62150;43.582;1.456;2024-02-23T14:21:53;98902.59;;;11.93;100.00
73821;BME280;62150;43.582;1.456;2024-02-23T14:24:21;98899.78;;;11.57;100.00
73821;BME280;62150;43.582;1.456;2024-02-23T14:26:49;98901.03;;;11.37;100.00
73821;BME280;62150;43.582;1.456;2024-02-23T14:29:16;98899.78;;;11.57;100.00
73821;BME280;62150;43.582;1.456;2024-02-23T14:31:44;98881.88;;;11.00;100.00
73821;BME280;62150;43.582;1.456;2024-02-23T14:34:13;98886.34;;;11.25;100.00
73821;BME280;62150;43.582;1.456;2024-02-23T14:36:41;98862.69;;;11.73;100.00
73821;BME280;62150;43.582;1.456;2024-02-23T14:39:10;98858.38;;;12.01;100.00
73821;BME280;62150;43.582;1.456;2024-02-23T14:41:39;98876.28;;;11.75;100.00
73821;BME280;62150;43.582;1.456;2024-02-23T14:44:06;98880.09;;;11.15;100.00
73821;BME280;62150;43.582;1.456;2024-02-23T14:46:34;98881.03;;;11.14;100.00
73821;BME280;62150;43.582;1.456;2024-02-23T14:49:01;98895.59;;;11.41;100.00
73821;BME280;62150;43.582;1.456;2024-02-23T14:51:38;98886.44;;;11.23;100.00
73821;BME280;62150;43.582;1.456;2024-02-23T14:54:08;98892.41;;;11.24;100.00
73821;BME280;62150;43.582;1.456;2024-02-23T14:56:36;98898.28;;;11.12;100.00
73821;BME280;62150;43.582;1.456;2024-02-23T14:59:04;98884.03;;;11.34;100.00
73821;BME280;62150;43.582;1.456;2024-02-23T15:01:33;98896.31;;;11.43;100.00
73821;BME280;62150;43.582;1.456;2024-02-23T15:04:00;98876.72;;;11.14;100.00
73821;BME280;62150;43.582;1.456;2024-02-23T15:06:28;98867.44;;;11.12;100.00
73821;BME280;62150;43.582;1.456;2024-02-23T15:08:57;98865.69;;;11.53;100.00
73821;BME280;62150;43.582;1.456;2024-02-23T15:11:25;98877.41;;;11.71;100.00
73821;BME280;62150;43.582;1.456;2024-02-23T15:13:52;98887.06;;;11.68;100.00
73821;BME280;62150;43.582;1.456;2024-02-23T15:16:24;98876.16;;;11.09;100.00
73821;BME280;62150;43.582;1.456;2024-02-23T15:18:51;98878.56;;;11.12;100.00
73821;BME280;62150;43.582;1.456;2024-02-23T15:21:19;98869.88;;;11.41;100.00
73821;BME280;62150;43.582;1.456;2024-02-23T15:23:47;98877.16;;;11.21;100.00
73821;BME280;62150;43.582;1.456;2024-02-23T15:26:16;98867.81;;;11.20;100.00
73821;BME280;62150;43.582;1.456;2024-02-23T15:28:44;98864.38;;;11.33;100.00
73821;BME280;62150;43.582;1.456;2024-02-23T15:31:12;98870.44;;;11.32;100.00
73821;BME280;62150;43.582;1.456;2024-02-23T15:33:39;98862.47;;;11.23;100.00
73821;BME280;62150;43.582;1.456;2024-02-23T15:36:07;98850.81;;;11.17;100.00
73821;BME280;62150;43.582;1.456;2024-02-23T15:38:35;98862.56;;;11.21;100.00
73821;BME280;62150;43.582;1.456;2024-02-23T15:41:03;98844.47;;;11.23;100.00
73821;BME280;62150;43.582;1.456;2024-02-23T15:43:32;98844.00;;;11.57;100.00
73821;BME280;62150;43.582;1.456;2024-02-23T15:45:59;98824.63;;;11.52;100.00
73821;BME280;62150;43.582;1.456;2024-02-23T15:48:27;98843.19;;;11.57;100.00
73821;BME280;62150;43.582;1.456;2024-02-23T15:50:54;98845.47;;;11.34;100.00
73821;BME280;62150;43.582;1.456;2024-02-23T15:53:22;98842.56;;;11.12;100.00
73821;BME280;62150;43.582;1.456;2024-02-23T15:55:50;98835.28;;;11.33;100.00
73821;BME280;62150;43.582;1.456;2024-02-23T15:58:17;98838.50;;;11.22;100.00
73821;BME280;62150;43.582;1.456;2024-02-23T16:00:47;98838.81;;;11.45;100.00
73821;BME280;62150;43.582;1.456;2024-02-23T16:03:15;98835.91;;;11.36;100.00
73821;BME280;62150;43.582;1.456;2024-02-23T16:05:43;98844.06;;;11.02;100.00
73821;BME280;62150;43.582;1.456;2024-02-23T16:08:11;98832.06;;;11.29;100.00
73821;BME280;62150;43.582;1.456;2024-02-23T16:10:38;98838.50;;;11.36;100.00
73821;BME280;62150;43.582;1.456;2024-02-23T16:13:07;98836.03;;;11.21;100.00
73821;BME280;62150;43.582;1.456;2024-02-23T16:15:35;98843.00;;;11.60;100.00
73821;BME280;62150;43.582;1.456;2024-02-23T16:18:04;98837.50;;;11.25;100.00
73821;BME280;62150;43.582;1.456;2024-02-23T16:20:33;98820.75;;;11.86;100.00
73821;BME280;62150;43.582;1.456;2024-02-23T16:23:01;98828.16;;;11.90;100.00
73821;BME280;62150;43.582;1.456;2024-02-23T16:25:29;98823.13;;;11.62;100.00
73821;BME280;62150;43.582;1.456;2024-02-23T16:27:57;98832.84;;;11.44;100.00
73821;BME280;62150;43.582;1.456;2024-02-23T16:30:24;98821.69;;;11.58;100.00
73821;BME280;62150;43.582;1.456;2024-02-23T16:32:52;98823.75;;;11.92;100.00
73821;BME280;62150;43.582;1.456;2024-02-23T16:35:21;98815.69;;;11.84;100.00
73821;BME280;62150;43.582;1.456;2024-02-23T16:37:50;98812.84;;;11.62;100.00
73821;BME280;62150;43.582;1.456;2024-02-23T16:40:21;98811.13;;;11.75;100.00
73821;BME280;62150;43.582;1.456;2024-02-23T16:42:54;98819.34;;;11.67;100.00
73821;BME280;62150;43.582;1.456;2024-02-23T16:45:22;98811.59;;;11.94;100.00
73821;BME280;62150;43.582;1.456;2024-02-23T16:47:50;98812.69;;;11.51;100.00
73821;BME280;62150;43.582;1.456;2024-02-23T16:50:18;98826.28;;;11.53;100.00
73821;BME280;62150;43.582;1.456;2024-02-23T16:52:47;98810.81;;;11.67;100.00
73821;BME280;62150;43.582;1.456;2024-02-23T16:55:16;98815.34;;;11.36;100.00
73821;BME280;62150;43.582;1.456;2024-02-23T16:57:44;98806.16;;;11.32;100.00
73821;BME280;62150;43.582;1.456;2024-02-23T17:00:13;98801.78;;;11.47;100.00
73821;BME280;62150;43.582;1.456;2024-02-23T17:02:40;98806.72;;;11.37;100.00
73821;BME280;62150;43.582;1.456;2024-02-23T17:05:08;98795.31;;;11.54;100.00
73821;BME280;62150;43.582;1.456;2024-02-23T17:07:36;98798.91;;;11.39;100.00
73821;BME280;62150;43.582;1.456;2024-02-23T17:10:06;98813.72;;;11.75;100.00
73821;BME280;62150;43.582;1.456;2024-02-23T17:12:33;98801.50;;;11.52;100.00
73821;BME280;62150;43.582;1.456;2024-02-23T17:15:01;98814.22;;;11.67;100.00
73821;BME280;62150;43.582;1.456;2024-02-23T17:17:28;98818.00;;;11.62;100.00
73821;BME280;62150;43.582;1.456;2024-02-23T17:19:57;98819.94;;;11.31;100.00
73821;BME280;62150;43.582;1.456;2024-02-23T17:22:25;98821.78;;;11.56;100.00
73821;BME280;62150;43.582;1.456;2024-02-23T17:24:54;98832.34;;;11.52;100.00
73821;BME280;62150;43.582;1.456;2024-02-23T17:27:23;98830.03;;;11.61;100.00
73821;BME280;62150;43.582;1.456;2024-02-23T17:29:51;98832.13;;;11.42;100.00
73821;BME280;62150;43.582;1.456;2024-02-23T17:32:19;98843.56;;;11.09;100.00
73821;BME280;62150;43.582;1.456;2024-02-23T17:34:47;98831.44;;;11.53;100.00
73821;BME280;62150;43.582;1.456;2024-02-23T17:37:14;98843.16;;;11.03;100.00
73821;BME280;62150;43.582;1.456;2024-02-23T17:39:42;98848.47;;;11.00;100.00